Impacts METAR Board INFO
IDs:

KPIT - Pittsburgh Intl, PA, US

Updated at: 1710 UTC 20 Jan 2018
Potential Impact None Slight Moderate High
Time20/05Z 20/06Z 20/07Z 20/08Z 20/09Z 20/10Z 20/11Z 20/12Z 20/13Z 20/14Z 20/15Z 20/16Z 20/17Z
VIS10 10 10 10 10 10 10 10 10 10 10 10 10
CIG-- -- -- -- -- 250 250 -- 250 -- -- 250 250
CoverCLRCLRFEWFEWSCTBKNBKNSCTBKNSCTSCTBKNBKN
FltCatVFRVFRVFRVFRVFRVFRVFRVFRVFRVFRVFRVFRVFR
WX--------------------------
WDir220220220220220220220220220210230240230
WSpd12 12 11 11 10 10 10 9 12 14 12 11 14
WGst-- -- 20 20 -- -- -- 17 17 20 22 21 22
Raw hourly METARs
KPIT 200451Z 22012KT 10SM CLR 02/M08 A2995 RMK AO2 SLP161 T00221078 400391056
KPIT 200551Z 22012KT 10SM CLR 03/M07 A2994 RMK AO2 SLP155 T00281072 10028 20011 58011
KPIT 200651Z 22011G20KT 10SM FEW250 03/M08 A2995 RMK AO2 SLP158 T00281078
KPIT 200751Z 22011G20KT 10SM FEW250 02/M07 A2995 RMK AO2 SLP159 T00221067
KPIT 200851Z 22010KT 10SM SCT250 03/M06 A2996 RMK AO2 SLP160 T00281061 51006
KPIT 200951Z 22010KT 10SM BKN250 03/M06 A2996 RMK AO2 SLP162 T00281056
KPIT 201051Z 22010KT 10SM BKN250 02/M06 A2997 RMK AO2 SLP167 T00221056
KPIT 201151Z 22009G17KT 10SM SCT250 02/M06 A2999 RMK AO2 SLP173 T00221056 10028 20022 53012
KPIT 201251Z 22012G17KT 10SM BKN250 02/M05 A3000 RMK AO2 SLP175 T00221050
KPIT 201351Z 21014G20KT 10SM SCT250 03/M05 A3002 RMK AO2 SLP181 T00281050
KPIT 201451Z 23012G22KT 10SM SCT250 04/M04 A3003 RMK AO2 SLP187 T00391044 53013
KPIT 201551Z 24011G21KT 10SM BKN250 05/M04 A3004 RMK AO2 SLP189 T00501039
KPIT 201651Z 23014G22KT 10SM BKN250 06/M03 A3003 RMK AO2 SLP184 T00611033